Time;durP1;ratioP1;P1;durP2;ratioP2;P2;SDS_P1;SDS_P2;PMS_P1;PMS_P2;Temp;Humidity;BMP_temperature;BMP_pressure;BME280_temperature;BME280_humidity;BME280_pressure;Samples;Min_cycle;Max_cycle;Signal;HPM_P1;HPM_P2
2021/09/01 00:02:01;;;;;;;4.35;3.13;;;;;;;21.40;56.17;102942.25;4909682;29;20038;-78
2021/09/01 00:04:27;;;;;;;5.20;3.38;;;;;;;21.41;55.90;102937.88;4942641;29;20119;-76
2021/09/01 00:06:52;;;;;;;6.03;3.10;;;;;;;21.34;56.16;102934.25;4925227;29;20130;-78
2021/09/01 00:09:18;;;;;;;4.75;2.53;;;;;;;21.33;56.18;102924.56;4909520;29;20039;-75
2021/09/01 00:11:43;;;;;;;4.43;2.47;;;;;;;21.32;56.41;102926.31;4939720;29;20466;-78
2021/09/01 00:14:10;;;;;;;4.95;3.30;;;;;;;21.35;56.00;102929.00;4907589;29;20475;-78
2021/09/01 00:16:35;;;;;;;4.97;2.88;;;;;;;21.35;55.80;102933.38;4937920;29;20055;-75
2021/09/01 00:19:03;;;;;;;4.65;2.50;;;;;;;21.29;56.20;102921.00;4937718;29;20048;-79
2021/09/01 00:21:30;;;;;;;4.90;3.45;;;;;;;21.26;56.04;102912.19;4939274;29;20031;-78
2021/09/01 00:23:55;;;;;;;5.80;2.83;;;;;;;21.30;56.12;102925.41;4922294;29;20136;-76
2021/09/01 00:26:21;;;;;;;3.95;2.70;;;;;;;21.38;55.98;102938.72;4921725;29;20059;-76
2021/09/01 00:28:47;;;;;;;5.30;2.92;;;;;;;21.38;56.08;102936.06;4921984;29;20024;-77
2021/09/01 00:31:13;;;;;;;5.50;3.00;;;;;;;21.38;56.17;102943.97;4942460;29;20092;-75
2021/09/01 00:33:39;;;;;;;5.40;3.53;;;;;;;21.38;55.97;102933.44;4942211;29;20031;-76
2021/09/01 00:36:04;;;;;;;3.83;2.50;;;;;;;21.33;55.91;102924.56;4925540;29;20036;-80
2021/09/01 00:38:30;;;;;;;3.95;2.40;;;;;;;21.36;56.05;102936.03;4941955;29;20028;-77
2021/09/01 00:40:56;;;;;;;3.95;2.80;;;;;;;21.31;56.06;102929.81;4939660;29;20030;-78
2021/09/01 00:43:24;;;;;;;3.83;2.38;;;;;;;21.36;55.91;102935.16;4939521;29;20035;-79
2021/09/01 00:45:50;;;;;;;3.53;2.53;;;;;;;21.38;56.02;102941.34;4938712;29;20028;-77
2021/09/01 00:48:18;;;;;;;4.85;3.15;;;;;;;21.29;56.03;102915.75;4940115;29;20024;-78
2021/09/01 00:50:47;;;;;;;5.15;3.25;;;;;;;21.20;55.95;102897.19;4923371;29;20031;-78
2021/09/01 00:53:14;;;;;;;4.45;3.08;;;;;;;21.32;55.95;102923.69;4938976;29;20079;-79
2021/09/01 00:55:46;;;;;;;4.60;2.92;;;;;;;21.34;55.99;102921.09;4939191;29;20062;-78
2021/09/01 00:58:15;;;;;;;3.50;2.53;;;;;;;21.25;56.03;102903.41;4924074;29;20030;-78
2021/09/01 01:00:57;;;;;;;5.03;2.80;;;;;;;21.28;55.94;102913.13;4940378;29;20110;-79
2021/09/01 01:03:22;;;;;;;4.53;3.30;;;;;;;21.33;55.92;102921.94;4926460;29;20390;-78
2021/09/01 01:05:48;;;;;;;3.92;2.50;;;;;;;21.30;55.82;102914.88;4924415;29;20039;-78
2021/09/01 01:08:13;;;;;;;4.32;3.35;;;;;;;21.32;55.80;102914.91;4923601;29;20031;-80
2021/09/01 01:10:40;;;;;;;3.58;2.70;;;;;;;21.34;55.78;102910.56;4923154;29;20031;-79
2021/09/01 01:13:09;;;;;;;4.22;2.80;;;;;;;21.36;55.78;102929.91;4940196;29;20031;-77
2021/09/01 01:15:38;;;;;;;3.67;2.95;;;;;;;21.33;55.88;102919.31;4923572;29;20039;-79
2021/09/01 01:18:07;;;;;;;3.80;2.53;;;;;;;21.29;55.84;102914.88;4938953;29;20398;-76
2021/09/01 01:20:32;;;;;;;5.13;3.45;;;;;;;21.34;55.74;102928.97;4923799;29;20032;-78
2021/09/01 01:22:57;;;;;;;4.25;2.75;;;;;;;21.31;55.75;102931.56;4908068;29;20043;-77
2021/09/01 01:25:39;;;;;;;4.25;3.03;;;;;;;21.31;55.75;102926.28;4923656;29;20474;-78
2021/09/01 01:28:09;;;;;;;3.83;2.60;;;;;;;21.36;55.91;102932.53;4939361;29;20035;-78
2021/09/01 01:30:36;;;;;;;5.78;3.03;;;;;;;21.32;55.95;102922.81;4923111;29;20179;-76
2021/09/01 01:33:02;;;;;;;4.57;2.38;;;;;;;21.33;55.77;102920.19;4939130;29;20520;-77
2021/09/01 01:35:39;;;;;;;4.53;3.35;;;;;;;21.35;55.73;102933.38;4908078;29;20032;-76
2021/09/01 01:38:07;;;;;;;4.50;2.80;;;;;;;21.32;55.83;102922.81;4939250;29;20023;-75
2021/09/01 01:40:34;;;;;;;3.95;2.72;;;;;;;21.31;55.82;102921.03;4937878;29;20027;-79
2021/09/01 01:43:00;;;;;;;5.13;2.92;;;;;;;21.34;55.75;102926.34;4939138;29;20561;-76
2021/09/01 01:45:32;;;;;;;4.90;2.45;;;;;;;21.34;55.68;102919.34;4939109;29;20034;-77
2021/09/01 01:47:57;;;;;;;5.97;3.42;;;;;;;21.31;55.80;102915.75;4937932;29;20023;-78
2021/09/01 01:50:23;;;;;;;3.00;2.45;;;;;;;21.16;55.68;102891.84;4938295;29;20028;-77
2021/09/01 01:52:48;;;;;;;6.55;3.63;;;;;;;21.30;55.79;102920.16;4922921;29;20028;-78
2021/09/01 01:55:13;;;;;;;3.88;2.45;;;;;;;21.31;55.82;102913.13;4923004;29;20050;-78
2021/09/01 01:57:39;;;;;;;3.90;2.72;;;;;;;21.29;55.61;102918.38;4938148;29;20035;-79
2021/09/01 02:00:06;;;;;;;4.78;2.88;;;;;;;21.29;55.84;102913.09;4922633;29;20508;-77
2021/09/01 02:02:32;;;;;;;3.53;2.75;;;;;;;21.33;55.75;102932.47;4923405;29;20038;-81
2021/09/01 02:04:58;;;;;;;4.63;2.92;;;;;;;21.31;55.55;102921.03;4942015;29;20035;-77
2021/09/01 02:07:25;;;;;;;4.90;3.53;;;;;;;21.32;55.53;102928.06;4941487;29;20043;-75
2021/09/01 02:09:51;;;;;;;2.85;2.42;;;;;;;21.27;55.54;102911.34;4941308;29;20470;-78
2021/09/01 02:12:16;;;;;;;3.80;2.88;;;;;;;21.30;55.71;102921.88;4925476;29;20035;-78
2021/09/01 02:14:41;;;;;;;3.92;2.45;;;;;;;21.32;55.66;102933.34;4909120;29;20039;-78
2021/09/01 02:17:07;;;;;;;4.00;2.50;;;;;;;21.25;55.72;102910.44;4940745;29;20410;-79
2021/09/01 02:19:33;;;;;;;3.95;2.63;;;;;;;21.30;55.62;102922.78;4924454;29;20042;-78
2021/09/01 02:21:58;;;;;;;3.50;2.63;;;;;;;21.25;55.53;102910.44;4940741;29;20383;-78
2021/09/01 02:24:23;;;;;;;3.70;2.50;;;;;;;21.28;55.66;102910.47;4924548;29;20512;-78
2021/09/01 02:26:49;;;;;;;4.18;2.88;;;;;;;21.30;55.39;102914.00;4908401;29;20046;-76
2021/09/01 02:29:14;;;;;;;3.08;2.38;;;;;;;21.27;55.40;102913.97;4939671;29;20042;-79
2021/09/01 02:31:40;;;;;;;3.78;2.53;;;;;;;21.30;55.75;102928.03;4908090;29;20094;-79
2021/09/01 02:34:05;;;;;;;4.28;2.78;;;;;;;21.31;55.60;102921.91;4939646;29;20066;-78
2021/09/01 02:36:31;;;;;;;4.43;2.65;;;;;;;21.30;55.38;102922.78;4925254;29;20096;-79
2021/09/01 02:38:56;;;;;;;2.90;2.60;;;;;;;21.29;55.68;102928.91;4939431;29;20035;-78
2021/09/01 02:41:23;;;;;;;5.90;2.88;;;;;;;21.22;55.60;102911.25;4939468;29;20084;-78
2021/09/01 02:43:50;;;;;;;2.92;2.42;;;;;;;21.24;55.30;102900.75;4923316;29;20036;-77
2021/09/01 02:46:15;;;;;;;5.18;3.40;;;;;;;21.23;55.49;102906.88;4923162;29;20138;-76
2021/09/01 02:48:40;;;;;;;5.30;2.85;;;;;;;21.26;55.53;102907.81;4922451;29;20485;-77
2021/09/01 02:51:06;;;;;;;3.42;2.42;;;;;;;21.30;55.72;102911.38;4922480;29;20123;-77
2021/09/01 02:53:31;;;;;;;3.28;2.63;;;;;;;21.31;55.47;102915.75;4921508;29;20038;-77
2021/09/01 02:55:57;;;;;;;3.25;2.20;;;;;;;21.27;55.47;102911.34;4940020;29;20086;-76
2021/09/01 02:58:22;;;;;;;5.43;3.00;;;;;;;21.31;55.49;102910.50;4922111;29;20118;-77
2021/09/01 03:00:47;;;;;;;3.75;2.35;;;;;;;21.30;55.58;102914.00;4922009;29;20398;-78
2021/09/01 03:03:13;;;;;;;4.88;2.25;;;;;;;21.31;55.68;102910.50;4937901;29;20482;-77
2021/09/01 03:05:38;;;;;;;3.10;2.22;;;;;;;21.28;55.42;102914.00;4906607;29;20474;-77
2021/09/01 03:08:05;;;;;;;3.47;2.10;;;;;;;21.27;55.51;102899.06;4938751;29;20090;-76
2021/09/01 03:10:30;;;;;;;5.45;3.22;;;;;;;21.21;55.38;102898.06;4921829;29;20493;-76
2021/09/01 03:12:55;;;;;;;2.83;2.30;;;;;;;21.31;55.57;102913.13;4905576;29;20031;-76
2021/09/01 03:15:21;;;;;;;4.10;2.50;;;;;;;21.28;55.44;102903.47;4937388;29;20035;-75
2021/09/01 03:17:46;;;;;;;7.10;2.70;;;;;;;21.26;55.52;102910.44;4921767;29;20059;-77
2021/09/01 03:20:12;;;;;;;4.22;2.90;;;;;;;21.28;55.45;102908.72;4906263;29;20130;-77
2021/09/01 03:22:37;;;;;;;3.53;2.30;;;;;;;21.10;55.38;102868.94;4905645;29;20130;-79
2021/09/01 03:25:03;;;;;;;2.95;1.90;;;;;;;21.25;55.46;102900.78;4921894;29;20036;-76
2021/09/01 03:27:28;;;;;;;4.97;3.10;;;;;;;21.26;55.31;102896.41;4921938;29;20036;-79
2021/09/01 03:29:53;;;;;;;2.58;2.00;;;;;;;21.28;55.36;102902.59;4905889;29;20039;-77
2021/09/01 03:32:19;;;;;;;3.90;2.08;;;;;;;21.27;55.44;102904.31;4905565;29;20039;-79
2021/09/01 03:34:44;;;;;;;3.03;2.30;;;;;;;21.27;55.28;102906.97;4921805;29;20178;-80
2021/09/01 03:37:10;;;;;;;3.22;2.30;;;;;;;21.28;55.39;102911.38;4920949;29;20050;-76
2021/09/01 03:39:35;;;;;;;4.18;2.28;;;;;;;21.17;55.39;102883.03;4921611;29;20055;-76
2021/09/01 03:42:01;;;;;;;4.80;3.00;;;;;;;21.30;55.37;102908.72;4904152;29;20082;-74
2021/09/01 03:44:26;;;;;;;3.88;2.20;;;;;;;21.30;55.43;102916.63;4935131;29;20028;-77
2021/09/01 03:46:51;;;;;;;2.67;1.83;;;;;;;21.27;55.26;102912.22;4921175;29;20175;-76
2021/09/01 03:49:17;;;;;;;4.57;3.05;;;;;;;21.29;55.41;102917.50;4936259;29;20032;-77
2021/09/01 03:51:47;;;;;;;3.13;2.55;;;;;;;21.27;55.50;102913.97;4904926;29;20024;-78
2021/09/01 03:54:14;;;;;;;3.47;2.38;;;;;;;21.29;55.37;102914.88;4937076;29;20034;-76
2021/09/01 03:56:39;;;;;;;4.75;2.92;;;;;;;21.22;55.37;102899.84;4936984;29;20027;-77
2021/09/01 03:59:06;;;;;;;2.65;2.17;;;;;;;21.22;55.50;102907.72;4920995;29;20522;-78
2021/09/01 04:01:33;;;;;;;3.55;1.98;;;;;;;21.15;55.39;102892.69;4920915;29;20545;-79
2021/09/01 04:04:05;;;;;;;4.18;2.50;;;;;;;21.17;55.47;102906.72;4922183;29;20039;-76
2021/09/01 04:06:31;;;;;;;2.70;1.95;;;;;;;21.27;55.40;102927.13;4940201;29;20031;-78
2021/09/01 04:08:57;;;;;;;3.88;2.30;;;;;;;21.20;55.33;102912.09;4924035;29;20062;-76
2021/09/01 04:11:22;;;;;;;4.38;2.47;;;;;;;21.28;55.58;102923.63;4940180;29;20110;-77
2021/09/01 04:13:48;;;;;;;4.20;2.78;;;;;;;21.23;55.27;102920.91;4924339;29;20028;-79
2021/09/01 04:16:13;;;;;;;3.42;2.15;;;;;;;21.26;55.46;102915.72;4939735;29;20453;-78
2021/09/01 04:18:39;;;;;;;2.70;2.00;;;;;;;21.26;55.44;102920.97;4939659;29;20150;-77
2021/09/01 04:21:04;;;;;;;4.03;2.28;;;;;;;21.16;55.38;102897.09;4924326;29;20027;-76
2021/09/01 04:23:29;;;;;;;3.50;2.40;;;;;;;21.24;55.39;102912.16;4926693;29;20055;-76
2021/09/01 04:25:55;;;;;;;3.15;2.03;;;;;;;21.24;55.48;102906.03;4928149;29;20118;-71
2021/09/01 04:28:20;;;;;;;5.22;3.03;;;;;;;21.28;55.41;102908.72;4925416;29;20075;-75
2021/09/01 04:30:46;;;;;;;3.83;2.42;;;;;;;21.23;55.47;102906.88;4942184;29;20083;-75
2021/09/01 04:33:11;;;;;;;3.50;2.13;;;;;;;21.25;55.27;102899.91;4926476;29;20034;-74
2021/09/01 04:35:37;;;;;;;3.28;2.25;;;;;;;21.25;55.40;102900.78;4942241;29;20088;-78
2021/09/01 04:38:03;;;;;;;3.53;2.22;;;;;;;21.26;55.45;102899.94;4926152;29;20478;-80
2021/09/01 04:40:29;;;;;;;3.38;2.03;;;;;;;21.31;55.57;102907.88;4925911;29;20471;-83
2021/09/01 04:42:54;;;;;;;3.58;2.42;;;;;;;21.29;55.38;102904.34;4925738;29;20040;-80
2021/09/01 04:45:20;;;;;;;3.80;2.75;;;;;;;21.30;55.53;102904.34;4942612;29;20102;-78
2021/09/01 04:47:45;;;;;;;3.90;2.42;;;;;;;21.28;55.54;102908.72;4941378;29;20027;-76
2021/09/01 04:50:12;;;;;;;3.80;2.72;;;;;;;21.27;55.50;102909.59;4925017;29;20033;-78
2021/09/01 04:52:37;;;;;;;2.47;1.92;;;;;;;21.28;55.68;102910.47;4925451;29;20390;-80
2021/09/01 04:55:04;;;;;;;3.20;2.35;;;;;;;21.30;55.55;102909.63;4909698;29;20027;-79
2021/09/01 04:57:30;;;;;;;3.20;2.15;;;;;;;21.29;55.59;102907.84;4909834;29;20383;-78
2021/09/01 04:59:55;;;;;;;3.00;2.17;;;;;;;21.32;55.55;102914.91;4925561;29;20046;-81
2021/09/01 05:02:20;;;;;;;3.72;2.30;;;;;;;21.31;55.39;102911.38;4940848;29;20031;-74
2021/09/01 05:04:46;;;;;;;3.53;2.17;;;;;;;21.31;55.55;102910.50;4909176;29;20028;-78
2021/09/01 05:07:11;;;;;;;3.20;2.30;;;;;;;21.29;55.54;102904.34;4908912;29;20042;-74
2021/09/01 05:09:36;;;;;;;3.42;2.50;;;;;;;21.31;55.56;102906.13;4908947;29;20059;-78
2021/09/01 05:12:02;;;;;;;3.30;2.15;;;;;;;21.32;55.29;102912.28;4940741;29;20031;-75
2021/09/01 05:14:27;;;;;;;7.40;2.05;;;;;;;21.30;55.51;102912.25;4925376;29;20031;-76
2021/09/01 05:16:53;;;;;;;5.68;2.67;;;;;;;21.28;55.19;102918.38;4940075;29;20059;-75
2021/09/01 05:19:18;;;;;;;6.60;2.22;;;;;;;21.22;54.89;102913.88;4924544;29;20040;-78
2021/09/01 05:21:52;;;;;;;5.28;2.47;;;;;;;21.25;55.08;102911.31;4939978;29;20030;-74
2021/09/01 05:24:51;;;;;;;5.18;2.65;;;;;;;21.23;55.11;102904.25;4939741;29;20433;-73
2021/09/01 05:27:19;;;;;;;6.43;2.10;;;;;;;21.08;54.59;102893.44;4939271;29;20493;-72
2021/09/01 05:29:48;;;;;;;5.88;3.13;;;;;;;20.71;51.96;102911.19;4939847;29;20028;-73
2021/09/01 05:32:17;;;;;;;5.93;3.38;;;;;;;20.43;51.65;102914.16;4938048;29;20456;-71
2021/09/01 05:34:43;;;;;;;4.68;2.60;;;;;;;20.23;50.94;102917.25;4939033;29;20032;-72
2021/09/01 05:37:11;;;;;;;7.63;3.00;;;;;;;20.19;50.87;102925.91;4939114;29;20062;-74
2021/09/01 05:39:40;;;;;;;7.10;3.17;;;;;;;20.14;51.18;102919.66;4922853;29;20036;-73
2021/09/01 05:42:05;;;;;;;5.43;3.63;;;;;;;20.19;50.77;102925.03;4939593;29;20019;-73
2021/09/01 05:44:32;;;;;;;10.88;3.22;;;;;;;20.25;50.56;102925.16;4923271;29;20042;-73
2021/09/01 05:46:58;;;;;;;10.20;4.32;;;;;;;20.27;50.91;102926.06;4939060;29;20039;-73
2021/09/01 05:49:24;;;;;;;7.90;3.95;;;;;;;20.12;50.58;102915.25;4923200;29;20053;-73
2021/09/01 05:51:50;;;;;;;7.07;3.25;;;;;;;20.21;50.50;102918.06;4940785;29;20386;-74
2021/09/01 05:54:16;;;;;;;8.50;4.53;;;;;;;20.20;50.64;102921.53;4939776;29;20028;-75
2021/09/01 05:56:47;;;;;;;8.57;4.30;;;;;;;20.16;51.22;102922.31;4939019;29;20114;-72
2021/09/01 05:59:16;;;;;;;9.52;4.05;;;;;;;20.26;50.91;102921.66;4939607;29;20573;-77
2021/09/01 06:01:50;;;;;;;8.02;3.65;;;;;;;20.36;50.91;102930.66;4938292;29;20027;-74
2021/09/01 06:04:17;;;;;;;7.30;3.47;;;;;;;20.53;50.39;102939.75;4938363;29;20505;-74
2021/09/01 06:06:49;;;;;;;5.85;2.80;;;;;;;20.67;50.47;102944.41;4938109;29;20031;-76
2021/09/01 06:09:15;;;;;;;6.78;3.30;;;;;;;20.73;50.50;102934.88;4939013;29;20466;-75
2021/09/01 06:11:45;;;;;;;7.13;3.30;;;;;;;20.82;50.75;102942.94;4938333;29;20039;-73
2021/09/01 06:14:11;;;;;;;6.38;3.55;;;;;;;20.85;50.73;102937.75;4938222;29;20023;-73
2021/09/01 06:16:36;;;;;;;7.18;4.07;;;;;;;20.83;51.00;102927.19;4936787;29;20086;-72
2021/09/01 06:19:01;;;;;;;8.93;3.28;;;;;;;20.88;50.97;102937.81;4890008;29;20039;-73
2021/09/01 06:21:27;;;;;;;7.28;3.08;;;;;;;20.84;51.12;102935.97;4889836;29;20045;-71
2021/09/01 06:23:54;;;;;;;5.68;3.15;;;;;;;20.88;51.05;102940.44;4889897;29;20064;-72
2021/09/01 06:26:20;;;;;;;7.15;3.53;;;;;;;20.91;51.17;102945.72;4905379;29;20036;-74
2021/09/01 06:28:46;;;;;;;10.10;3.35;;;;;;;20.92;51.37;102940.50;4920627;29;20483;-71
2021/09/01 06:31:11;;;;;;;7.57;3.28;;;;;;;20.93;51.23;102950.16;4937838;29;20038;-71
2021/09/01 06:33:36;;;;;;;6.28;2.85;;;;;;;20.91;51.19;102940.47;4904999;29;20398;-72
2021/09/01 06:36:02;;;;;;;5.35;3.05;;;;;;;20.96;51.44;102947.59;4905398;29;20038;-72
2021/09/01 06:38:28;;;;;;;6.18;4.03;;;;;;;20.95;51.63;102951.09;4920706;29;20456;-73
2021/09/01 06:40:53;;;;;;;6.45;3.28;;;;;;;20.99;51.82;102952.94;4920491;29;20024;-72
2021/09/01 06:43:18;;;;;;;7.65;2.60;;;;;;;20.97;51.63;102962.53;4904784;29;20538;-74
2021/09/01 06:45:46;;;;;;;5.50;2.80;;;;;;;21.00;51.93;102957.34;4905065;29;20035;-72
2021/09/01 06:48:12;;;;;;;6.05;2.95;;;;;;;21.01;51.94;102961.75;4906675;29;20043;-74
2021/09/01 06:50:37;;;;;;;9.30;2.85;;;;;;;21.00;52.20;102959.06;4905586;29;20040;-74
2021/09/01 06:53:02;;;;;;;5.47;2.90;;;;;;;21.04;52.21;102959.13;4906518;29;20430;-74
2021/09/01 06:55:28;;;;;;;5.30;3.05;;;;;;;21.03;52.03;102949.47;4890853;29;20455;-74
2021/09/01 06:57:53;;;;;;;4.60;2.65;;;;;;;21.03;52.35;102957.34;4890113;29;20028;-73
2021/09/01 07:00:20;;;;;;;6.47;3.40;;;;;;;21.06;52.52;102964.44;4889530;29;20031;-71
2021/09/01 07:02:46;;;;;;;4.63;2.28;;;;;;;21.02;52.49;102963.50;4938097;29;20051;-71
2021/09/01 07:05:14;;;;;;;7.60;2.85;;;;;;;20.98;52.59;102942.38;4920458;29;20032;-72
2021/09/01 07:07:40;;;;;;;6.63;2.60;;;;;;;20.97;52.74;102953.75;4937283;29;20030;-70
2021/09/01 07:10:07;;;;;;;6.22;2.75;;;;;;;21.05;52.75;102974.06;4888756;29;20031;-72
2021/09/01 07:12:32;;;;;;;8.07;2.85;;;;;;;21.08;52.91;102973.25;4920270;29;20028;-72
2021/09/01 07:14:58;;;;;;;4.53;3.15;;;;;;;21.08;52.80;102969.72;4937572;29;20524;-72
2021/09/01 07:17:23;;;;;;;4.60;3.00;;;;;;;21.11;52.76;102978.56;4908942;29;20062;-71
2021/09/01 07:19:48;;;;;;;5.70;2.70;;;;;;;21.10;52.96;102979.41;4935933;29;20028;-73
2021/09/01 07:22:14;;;;;;;5.07;2.63;;;;;;;21.08;53.10;102978.50;4904422;29;20035;-72
2021/09/01 07:24:39;;;;;;;4.65;2.67;;;;;;;21.13;52.96;102994.38;4936356;29;20035;-72
2021/09/01 07:27:05;;;;;;;6.03;2.78;;;;;;;21.10;53.23;102983.78;4919588;29;20047;-71
2021/09/01 07:29:30;;;;;;;4.43;2.35;;;;;;;21.14;52.90;102990.91;4919647;29;20035;-71
2021/09/01 07:31:55;;;;;;;4.65;2.60;;;;;;;21.14;53.08;102993.53;4919656;29;20128;-71
2021/09/01 07:34:21;;;;;;;4.93;2.67;;;;;;;21.15;52.95;102996.19;4919605;29;20422;-70
2021/09/01 07:36:46;;;;;;;3.28;1.98;;;;;;;21.14;52.99;102997.03;4903940;29;20083;-73
2021/09/01 07:39:12;;;;;;;3.53;2.47;;;;;;;21.08;53.17;102988.13;4906745;29;20123;-73
2021/09/01 07:41:37;;;;;;;4.78;2.53;;;;;;;21.15;52.95;103004.06;4910264;29;20023;-72
2021/09/01 07:44:05;;;;;;;4.88;2.65;;;;;;;21.14;53.15;102997.03;4925844;29;20121;-74
2021/09/01 07:46:31;;;;;;;3.47;2.50;;;;;;;21.17;53.17;103004.06;4941686;29;20027;-73
2021/09/01 07:49:00;;;;;;;4.18;3.25;;;;;;;21.18;53.21;103008.47;4910060;29;20497;-75
2021/09/01 07:51:25;;;;;;;5.40;2.25;;;;;;;21.14;53.16;103006.69;4941404;29;20035;-72
2021/09/01 07:53:51;;;;;;;5.85;2.63;;;;;;;21.15;53.25;103009.34;4941917;29;20035;-71
2021/09/01 07:56:16;;;;;;;4.45;2.35;;;;;;;21.17;53.01;103004.97;4925646;29;20031;-74
2021/09/01 07:58:41;;;;;;;4.32;2.20;;;;;;;21.23;53.15;103009.50;4910085;29;20126;-74
2021/09/01 08:01:07;;;;;;;9.63;3.47;;;;;;;21.16;53.12;102989.19;4909907;29;20036;-71
2021/09/01 08:03:32;;;;;;;3.13;2.15;;;;;;;21.25;53.01;102998.16;4909722;29;20054;-72
2021/09/01 08:05:59;;;;;;;5.63;2.50;;;;;;;21.29;52.89;103007.84;4925491;29;20036;-73
2021/09/01 08:08:25;;;;;;;3.25;2.42;;;;;;;21.28;52.74;102997.31;4941308;29;20147;-73
2021/09/01 08:10:50;;;;;;;3.22;2.03;;;;;;;21.27;52.94;103003.44;4941045;29;20110;-72
2021/09/01 08:13:16;;;;;;;4.38;2.72;;;;;;;21.27;53.12;103000.81;4925436;29;20118;-75
2021/09/01 08:15:41;;;;;;;3.75;2.20;;;;;;;21.28;53.06;103003.47;4925574;29;20039;-72
2021/09/01 08:18:07;;;;;;;3.63;2.30;;;;;;;21.30;53.12;103011.38;4940924;29;20054;-75
2021/09/01 08:20:32;;;;;;;3.25;1.70;;;;;;;21.31;53.20;103011.41;4941586;29;20039;-74
2021/09/01 08:22:57;;;;;;;3.28;2.30;;;;;;;21.32;53.06;103010.53;4925669;29;20034;-72
2021/09/01 08:25:23;;;;;;;4.15;2.47;;;;;;;21.36;52.96;103007.13;4941262;29;20024;-75
2021/09/01 08:27:49;;;;;;;2.90;2.05;;;;;;;21.40;52.95;103021.22;4941147;29;20031;-74
2021/09/01 08:30:15;;;;;;;4.13;2.28;;;;;;;21.37;53.24;103018.53;4925370;29;20047;-73
2021/09/01 08:32:40;;;;;;;4.18;2.40;;;;;;;21.36;53.29;103020.28;4925416;29;20059;-71
2021/09/01 08:35:06;;;;;;;4.53;2.22;;;;;;;21.39;53.25;103022.06;4925083;29;20147;-73
2021/09/01 08:37:32;;;;;;;4.75;2.58;;;;;;;21.41;52.90;103024.75;4940940;29;20027;-73
2021/09/01 08:40:00;;;;;;;2.88;1.80;;;;;;;21.42;53.41;103023.88;4941200;29;20034;-72
2021/09/01 08:42:26;;;;;;;4.82;2.28;;;;;;;21.32;53.14;103009.66;4925531;29;20027;-73
2021/09/01 08:44:51;;;;;;;3.78;2.15;;;;;;;21.30;53.35;103008.72;4925014;29;20074;-73
2021/09/01 08:47:17;;;;;;;3.08;1.88;;;;;;;21.35;53.24;103020.25;4924992;29;20032;-71
2021/09/01 08:49:46;;;;;;;4.32;2.17;;;;;;;21.25;53.43;103011.31;4924576;29;20035;-72
2021/09/01 08:52:12;;;;;;;3.55;2.10;;;;;;;21.33;53.41;103020.22;4937961;29;20106;-73
2021/09/01 08:54:37;;;;;;;3.63;1.88;;;;;;;21.25;53.37;102999.91;4922816;29;20049;-73
2021/09/01 08:57:03;;;;;;;3.08;2.20;;;;;;;21.28;53.39;103008.72;4937904;29;20036;-74
2021/09/01 08:59:28;;;;;;;3.13;1.85;;;;;;;21.45;53.36;103035.31;4938104;29;20032;-74
2021/09/01 09:01:55;;;;;;;3.72;2.13;;;;;;;21.43;53.15;103021.25;4938005;29;20514;-73
2021/09/01 09:04:22;;;;;;;3.47;2.15;;;;;;;21.42;53.34;103019.50;4937863;29;20032;-78
2021/09/01 09:06:59;;;;;;;2.63;1.80;;;;;;;21.39;53.25;103017.69;4939284;29;20103;-73
2021/09/01 09:09:29;;;;;;;6.25;2.58;;;;;;;21.34;53.41;103011.47;4939734;29;20554;-77
2021/09/01 09:11:57;;;;;;;2.60;1.80;;;;;;;21.40;53.55;103026.50;4925551;29;20055;-81
2021/09/01 09:14:35;;;;;;;4.50;2.05;;;;;;;21.33;53.36;103008.78;4941311;29;20031;-73
2021/09/01 09:17:10;;;;;;;3.40;2.35;;;;;;;21.42;53.23;103027.41;4939804;29;20051;-72
2021/09/01 09:19:47;;;;;;;3.80;1.60;;;;;;;21.42;53.32;103027.41;4939349;29;20019;-72
2021/09/01 09:22:17;;;;;;;1.95;1.50;;;;;;;21.39;53.34;103027.34;4939050;29;20042;-75
2021/09/01 09:24:43;;;;;;;3.75;1.90;;;;;;;21.36;53.56;103019.38;4939205;29;20042;-74
2021/09/01 09:27:08;;;;;;;2.63;1.70;;;;;;;21.39;53.30;103032.59;4924206;29;20059;-75
2021/09/01 09:29:34;;;;;;;3.13;1.67;;;;;;;21.42;53.30;103031.78;4923855;29;20541;-74
2021/09/01 09:32:04;;;;;;;3.22;1.80;;;;;;;21.31;53.35;103019.28;4924251;29;20033;-73
2021/09/01 09:34:41;;;;;;;4.63;2.10;;;;;;;21.38;53.41;103031.72;4939962;29;20525;-73
2021/09/01 09:37:12;;;;;;;2.78;1.73;;;;;;;21.41;53.39;103030.00;4938293;29;20090;-72
2021/09/01 09:39:43;;;;;;;2.83;1.40;;;;;;;21.45;53.44;103042.34;4938235;29;20032;-73
2021/09/01 09:42:13;;;;;;;3.90;2.15;;;;;;;21.40;53.28;103026.50;4938149;29;20490;-72
2021/09/01 09:44:41;;;;;;;2.22;1.73;;;;;;;21.43;53.34;103034.41;4922444;29;20040;-72
2021/09/01 09:47:07;;;;;;;3.15;1.70;;;;;;;21.33;53.32;103016.69;4939426;29;20031;-72
2021/09/01 09:49:34;;;;;;;2.83;1.77;;;;;;;21.43;53.21;103030.88;4924373;29;20050;-72
2021/09/01 09:52:11;;;;;;;3.25;1.73;;;;;;;21.47;53.31;103030.09;4939292;29;20032;-71
2021/09/01 09:54:40;;;;;;;2.97;1.85;;;;;;;21.38;53.32;103010.66;4925337;29;20398;-73
2021/09/01 09:57:11;;;;;;;2.20;1.73;;;;;;;21.47;53.31;103025.72;4939731;29;20115;-73
2021/09/01 09:59:37;;;;;;;2.40;1.48;;;;;;;21.49;53.45;103029.28;4940486;29;20075;-72
2021/09/01 10:02:03;;;;;;;3.45;1.63;;;;;;;21.49;53.54;103031.91;4938264;29;20028;-73
2021/09/01 10:04:29;;;;;;;2.65;1.80;;;;;;;21.46;53.63;103036.22;4938562;29;20467;-73
2021/09/01 10:06:55;;;;;;;2.28;1.55;;;;;;;21.41;53.47;103024.75;4941134;29;20028;-75
2021/09/01 10:09:21;;;;;;;3.05;1.52;;;;;;;21.47;53.63;103040.63;4926115;29;20078;-73
2021/09/01 10:11:50;;;;;;;3.50;1.90;;;;;;;21.38;53.74;103025.56;4942100;29;20040;-73
2021/09/01 10:14:18;;;;;;;2.45;1.40;;;;;;;21.32;53.87;103009.66;4941134;29;20122;-73
2021/09/01 10:16:52;;;;;;;3.38;1.70;;;;;;;21.32;53.79;103010.53;4937931;29;20083;-72
2021/09/01 10:19:26;;;;;;;3.55;1.80;;;;;;;21.41;53.92;103024.75;4921342;29;20572;-73
2021/09/01 10:21:55;;;;;;;2.33;1.42;;;;;;;21.45;53.86;103032.69;4921003;29;20114;-72
2021/09/01 10:24:31;;;;;;;2.80;2.00;;;;;;;21.46;53.82;103026.56;4921020;29;20082;-72
2021/09/01 10:27:22;;;;;;;4.72;2.38;;;;;;;21.44;53.76;103028.28;4920994;29;20068;-72
2021/09/01 10:29:55;;;;;;;3.05;2.13;;;;;;;21.34;53.80;103000.03;4920923;29;20020;-72
2021/09/01 10:32:28;;;;;;;3.05;1.70;;;;;;;21.49;53.69;103031.91;4921354;29;20028;-72
2021/09/01 10:35:12;;;;;;;2.10;1.40;;;;;;;21.49;53.90;103028.38;4921212;29;20438;-72
2021/09/01 10:37:39;;;;;;;1.90;1.25;;;;;;;21.49;53.80;103021.38;4938418;29;20055;-73
2021/09/01 10:40:11;;;;;;;2.60;1.30;;;;;;;21.49;53.51;103029.28;4905087;29;20032;-70
2021/09/01 10:42:44;;;;;;;1.42;1.10;;;;;;;21.49;53.82;103029.28;4921064;29;20024;-71
2021/09/01 10:45:13;;;;;;;1.75;1.23;;;;;;;21.45;54.00;103021.28;4905050;29;20033;-72
2021/09/01 10:47:51;;;;;;;2.75;1.55;;;;;;;21.47;53.98;103025.72;4920269;29;20043;-71
2021/09/01 10:50:23;;;;;;;2.03;1.30;;;;;;;21.41;53.87;103014.22;4920841;29;20496;-74
2021/09/01 10:52:56;;;;;;;3.33;1.83;;;;;;;21.45;54.08;103030.06;4905410;29;20050;-72
2021/09/01 10:55:22;;;;;;;2.38;1.45;;;;;;;21.41;54.15;103022.09;4920250;29;20038;-74
2021/09/01 10:58:13;;;;;;;1.60;1.30;;;;;;;21.46;54.11;103031.84;4920522;29;20410;-73
2021/09/01 11:00:39;;;;;;;2.80;1.40;;;;;;;21.39;54.24;103019.44;4920229;29;20034;-71
2021/09/01 11:03:05;;;;;;;2.17;1.40;;;;;;;21.43;54.05;103015.97;4920113;29;20475;-71
2021/09/01 11:05:31;;;;;;;2.35;1.50;;;;;;;21.44;54.17;103011.59;4920468;29;20039;-71
2021/09/01 11:07:56;;;;;;;2.53;1.67;;;;;;;21.47;53.94;103025.72;4904467;29;20032;-72
2021/09/01 11:10:22;;;;;;;3.10;1.63;;;;;;;21.47;53.80;103017.81;4920103;29;20035;-72
2021/09/01 11:12:57;;;;;;;3.15;1.50;;;;;;;21.43;54.00;103009.84;4920141;29;20024;-74
2021/09/01 11:15:23;;;;;;;2.22;1.67;;;;;;;21.52;53.87;103020.53;4903852;29;20027;-72
2021/09/01 11:17:48;;;;;;;3.72;1.40;;;;;;;21.54;53.95;103018.81;4927976;29;20403;-72
2021/09/01 11:20:13;;;;;;;2.30;1.60;;;;;;;21.55;53.77;103012.69;4920309;29;20035;-73
2021/09/01 11:22:39;;;;;;;3.50;1.52;;;;;;;21.54;53.84;103008.28;4903848;29;20544;-75
2021/09/01 11:25:13;;;;;;;1.98;1.40;;;;;;;21.53;53.87;103011.78;4919659;29;20039;-71